sensor_id;sensor_type;location;lat;lon;timestamp;P1;durP1;ratioP1;P2;durP2;ratioP2
31836;SDS011;18401;49.344;6.240;2023-03-01T00:00:39;15.65;;;8.30;;
31836;SDS011;18401;49.344;6.240;2023-03-01T00:03:04;18.52;;;9.30;;
31836;SDS011;18401;49.344;6.240;2023-03-01T00:05:31;15.13;;;7.80;;
31836;SDS011;18401;49.344;6.240;2023-03-01T00:07:57;19.23;;;8.98;;
31836;SDS011;18401;49.344;6.240;2023-03-01T00:10:23;13.48;;;8.23;;
31836;SDS011;18401;49.344;6.240;2023-03-01T00:12:48;18.75;;;8.10;;
31836;SDS011;18401;49.344;6.240;2023-03-01T00:15:14;15.38;;;8.07;;
31836;SDS011;18401;49.344;6.240;2023-03-01T00:17:40;11.70;;;7.47;;
31836;SDS011;18401;49.344;6.240;2023-03-01T00:20:05;17.00;;;8.27;;
31836;SDS011;18401;49.344;6.240;2023-03-01T00:22:36;15.20;;;8.48;;
31836;SDS011;18401;49.344;6.240;2023-03-01T00:25:02;14.57;;;7.95;;
31836;SDS011;18401;49.344;6.240;2023-03-01T00:27:28;16.77;;;7.70;;
31836;SDS011;18401;49.344;6.240;2023-03-01T00:29:54;16.45;;;7.60;;
31836;SDS011;18401;49.344;6.240;2023-03-01T00:32:20;17.83;;;7.90;;
31836;SDS011;18401;49.344;6.240;2023-03-01T00:34:45;13.27;;;7.82;;
31836;SDS011;18401;49.344;6.240;2023-03-01T00:37:19;14.00;;;7.50;;
31836;SDS011;18401;49.344;6.240;2023-03-01T00:39:48;14.65;;;7.85;;
31836;SDS011;18401;49.344;6.240;2023-03-01T00:42:14;15.05;;;7.65;;
31836;SDS011;18401;49.344;6.240;2023-03-01T00:44:41;16.85;;;7.82;;
31836;SDS011;18401;49.344;6.240;2023-03-01T00:47:06;16.20;;;7.55;;
31836;SDS011;18401;49.344;6.240;2023-03-01T00:49:32;15.13;;;8.45;;
31836;SDS011;18401;49.344;6.240;2023-03-01T00:51:58;14.38;;;7.47;;
31836;SDS011;18401;49.344;6.240;2023-03-01T00:54:24;15.00;;;7.97;;
31836;SDS011;18401;49.344;6.240;2023-03-01T00:56:49;14.63;;;7.68;;
31836;SDS011;18401;49.344;6.240;2023-03-01T00:59:15;15.13;;;7.97;;
31836;SDS011;18401;49.344;6.240;2023-03-01T01:01:41;15.88;;;7.93;;
31836;SDS011;18401;49.344;6.240;2023-03-01T01:04:08;13.15;;;7.05;;
31836;SDS011;18401;49.344;6.240;2023-03-01T01:06:36;11.57;;;7.10;;
31836;SDS011;18401;49.344;6.240;2023-03-01T01:09:05;14.23;;;7.28;;
31836;SDS011;18401;49.344;6.240;2023-03-01T01:11:32;13.55;;;7.53;;
31836;SDS011;18401;49.344;6.240;2023-03-01T01:13:58;10.77;;;6.85;;
31836;SDS011;18401;49.344;6.240;2023-03-01T01:16:25;14.55;;;7.55;;
31836;SDS011;18401;49.344;6.240;2023-03-01T01:18:53;13.48;;;7.80;;
31836;SDS011;18401;49.344;6.240;2023-03-01T01:21:20;18.60;;;8.23;;
31836;SDS011;18401;49.344;6.240;2023-03-01T01:23:47;14.85;;;7.70;;
31836;SDS011;18401;49.344;6.240;2023-03-01T01:26:18;15.07;;;8.20;;
31836;SDS011;18401;49.344;6.240;2023-03-01T01:28:47;14.43;;;8.25;;
31836;SDS011;18401;49.344;6.240;2023-03-01T01:31:13;15.65;;;8.63;;
31836;SDS011;18401;49.344;6.240;2023-03-01T01:33:39;14.13;;;7.97;;
31836;SDS011;18401;49.344;6.240;2023-03-01T01:36:05;16.50;;;7.90;;
31836;SDS011;18401;49.344;6.240;2023-03-01T01:38:32;14.55;;;7.85;;
31836;SDS011;18401;49.344;6.240;2023-03-01T01:40:58;15.98;;;8.48;;
31836;SDS011;18401;49.344;6.240;2023-03-01T01:43:25;12.88;;;8.10;;
31836;SDS011;18401;49.344;6.240;2023-03-01T01:46:06;15.18;;;7.25;;
31836;SDS011;18401;49.344;6.240;2023-03-01T01:48:57;12.73;;;7.80;;
31836;SDS011;18401;49.344;6.240;2023-03-01T01:51:29;15.15;;;7.63;;
31836;SDS011;18401;49.344;6.240;2023-03-01T01:54:08;14.07;;;8.55;;
31836;SDS011;18401;49.344;6.240;2023-03-01T01:56:39;14.00;;;8.32;;
31836;SDS011;18401;49.344;6.240;2023-03-01T01:59:09;13.38;;;8.15;;
31836;SDS011;18401;49.344;6.240;2023-03-01T02:01:35;13.52;;;8.13;;
31836;SDS011;18401;49.344;6.240;2023-03-01T02:04:01;13.88;;;7.60;;
31836;SDS011;18401;49.344;6.240;2023-03-01T02:06:31;16.95;;;7.88;;
31836;SDS011;18401;49.344;6.240;2023-03-01T02:09:02;12.53;;;7.13;;
31836;SDS011;18401;49.344;6.240;2023-03-01T02:11:31;11.50;;;7.68;;
31836;SDS011;18401;49.344;6.240;2023-03-01T02:13:58;12.90;;;8.15;;
31836;SDS011;18401;49.344;6.240;2023-03-01T02:16:24;14.05;;;8.43;;
31836;SDS011;18401;49.344;6.240;2023-03-01T02:18:51;16.75;;;8.45;;
31836;SDS011;18401;49.344;6.240;2023-03-01T02:24:10;14.65;;;8.10;;
31836;SDS011;18401;49.344;6.240;2023-03-01T02:26:57;20.27;;;9.20;;
31836;SDS011;18401;49.344;6.240;2023-03-01T02:29:24;12.10;;;8.48;;
31836;SDS011;18401;49.344;6.240;2023-03-01T02:31:52;15.00;;;9.02;;
31836;SDS011;18401;49.344;6.240;2023-03-01T02:34:22;16.13;;;8.85;;
31836;SDS011;18401;49.344;6.240;2023-03-01T02:37:13;17.77;;;8.73;;
31836;SDS011;18401;49.344;6.240;2023-03-01T02:39:40;14.98;;;8.65;;
31836;SDS011;18401;49.344;6.240;2023-03-01T02:42:11;16.95;;;7.93;;
31836;SDS011;18401;49.344;6.240;2023-03-01T02:44:39;16.73;;;8.65;;
31836;SDS011;18401;49.344;6.240;2023-03-01T02:47:05;15.50;;;8.50;;
31836;SDS011;18401;49.344;6.240;2023-03-01T02:49:32;15.88;;;8.48;;
31836;SDS011;18401;49.344;6.240;2023-03-01T02:57:23;16.25;;;9.00;;
31836;SDS011;18401;49.344;6.240;2023-03-01T02:59:52;16.83;;;8.90;;
31836;SDS011;18401;49.344;6.240;2023-03-01T03:02:21;18.05;;;8.90;;
31836;SDS011;18401;49.344;6.240;2023-03-01T03:05:08;14.98;;;8.52;;
31836;SDS011;18401;49.344;6.240;2023-03-01T03:07:39;19.58;;;9.13;;
31836;SDS011;18401;49.344;6.240;2023-03-01T03:10:08;13.27;;;8.15;;
31836;SDS011;18401;49.344;6.240;2023-03-01T03:12:37;13.25;;;7.53;;
31836;SDS011;18401;49.344;6.240;2023-03-01T03:15:03;15.20;;;8.40;;
31836;SDS011;18401;49.344;6.240;2023-03-01T03:17:34;18.98;;;9.13;;
31836;SDS011;18401;49.344;6.240;2023-03-01T03:20:02;18.40;;;9.63;;
31836;SDS011;18401;49.344;6.240;2023-03-01T03:22:28;16.02;;;8.45;;
31836;SDS011;18401;49.344;6.240;2023-03-01T03:24:54;14.55;;;9.18;;
31836;SDS011;18401;49.344;6.240;2023-03-01T03:27:20;14.18;;;8.98;;
31836;SDS011;18401;49.344;6.240;2023-03-01T03:29:46;17.13;;;10.20;;
31836;SDS011;18401;49.344;6.240;2023-03-01T03:32:11;18.15;;;9.27;;
31836;SDS011;18401;49.344;6.240;2023-03-01T03:34:37;20.25;;;9.85;;
31836;SDS011;18401;49.344;6.240;2023-03-01T03:37:02;16.23;;;9.00;;
31836;SDS011;18401;49.344;6.240;2023-03-01T03:39:28;13.82;;;8.85;;
31836;SDS011;18401;49.344;6.240;2023-03-01T03:41:59;17.50;;;9.98;;
31836;SDS011;18401;49.344;6.240;2023-03-01T03:44:25;24.25;;;10.43;;
31836;SDS011;18401;49.344;6.240;2023-03-01T03:46:51;18.15;;;9.27;;
31836;SDS011;18401;49.344;6.240;2023-03-01T03:49:16;15.90;;;9.57;;
31836;SDS011;18401;49.344;6.240;2023-03-01T03:51:42;20.83;;;9.90;;
31836;SDS011;18401;49.344;6.240;2023-03-01T03:54:11;19.67;;;10.18;;
31836;SDS011;18401;49.344;6.240;2023-03-01T03:56:37;17.10;;;9.50;;
31836;SDS011;18401;49.344;6.240;2023-03-01T03:59:02;17.08;;;9.63;;
31836;SDS011;18401;49.344;6.240;2023-03-01T04:01:28;19.88;;;10.00;;
31836;SDS011;18401;49.344;6.240;2023-03-01T04:03:54;18.98;;;9.10;;
31836;SDS011;18401;49.344;6.240;2023-03-01T04:06:19;16.67;;;9.38;;
31836;SDS011;18401;49.344;6.240;2023-03-01T04:08:45;15.80;;;9.52;;
31836;SDS011;18401;49.344;6.240;2023-03-01T04:11:11;19.13;;;9.10;;
31836;SDS011;18401;49.344;6.240;2023-03-01T04:13:53;18.98;;;9.98;;
31836;SDS011;18401;49.344;6.240;2023-03-01T04:16:20;18.27;;;9.50;;
31836;SDS011;18401;49.344;6.240;2023-03-01T04:18:46;18.88;;;9.57;;
31836;SDS011;18401;49.344;6.240;2023-03-01T04:21:12;20.55;;;10.93;;
31836;SDS011;18401;49.344;6.240;2023-03-01T04:23:38;20.55;;;10.20;;
31836;SDS011;18401;49.344;6.240;2023-03-01T04:26:05;18.42;;;10.18;;
31836;SDS011;18401;49.344;6.240;2023-03-01T04:28:32;18.75;;;10.05;;
31836;SDS011;18401;49.344;6.240;2023-03-01T04:31:02;19.35;;;9.95;;
31836;SDS011;18401;49.344;6.240;2023-03-01T05:37:58;23.98;;;12.07;;
31836;SDS011;18401;49.344;6.240;2023-03-01T05:40:24;23.40;;;11.23;;
31836;SDS011;18401;49.344;6.240;2023-03-01T05:42:52;27.38;;;12.50;;
31836;SDS011;18401;49.344;6.240;2023-03-01T05:45:19;25.10;;;12.43;;
31836;SDS011;18401;49.344;6.240;2023-03-01T05:47:46;26.85;;;12.73;;
31836;SDS011;18401;49.344;6.240;2023-03-01T05:50:14;25.50;;;13.07;;
31836;SDS011;18401;49.344;6.240;2023-03-01T05:52:44;22.75;;;11.82;;
31836;SDS011;18401;49.344;6.240;2023-03-01T05:55:15;28.30;;;12.73;;
31836;SDS011;18401;49.344;6.240;2023-03-01T05:57:42;24.40;;;12.02;;
31836;SDS011;18401;49.344;6.240;2023-03-01T06:00:08;22.75;;;12.50;;
31836;SDS011;18401;49.344;6.240;2023-03-01T06:02:35;24.23;;;13.07;;
31836;SDS011;18401;49.344;6.240;2023-03-01T06:05:00;25.42;;;12.75;;
31836;SDS011;18401;49.344;6.240;2023-03-01T06:07:27;24.88;;;12.43;;
31836;SDS011;18401;49.344;6.240;2023-03-01T06:09:53;25.60;;;13.38;;
31836;SDS011;18401;49.344;6.240;2023-03-01T06:12:18;19.52;;;10.98;;
31836;SDS011;18401;49.344;6.240;2023-03-01T06:14:45;21.92;;;11.77;;
31836;SDS011;18401;49.344;6.240;2023-03-01T06:17:11;25.38;;;11.88;;
31836;SDS011;18401;49.344;6.240;2023-03-01T06:19:37;27.40;;;12.48;;
31836;SDS011;18401;49.344;6.240;2023-03-01T06:22:03;27.45;;;12.45;;
31836;SDS011;18401;49.344;6.240;2023-03-01T06:24:28;35.33;;;16.35;;
31836;SDS011;18401;49.344;6.240;2023-03-01T06:26:54;26.42;;;13.02;;
31836;SDS011;18401;49.344;6.240;2023-03-01T06:29:20;27.83;;;13.35;;
31836;SDS011;18401;49.344;6.240;2023-03-01T06:31:47;25.73;;;12.52;;
31836;SDS011;18401;49.344;6.240;2023-03-01T06:34:13;27.83;;;13.05;;
31836;SDS011;18401;49.344;6.240;2023-03-01T06:36:39;32.95;;;16.25;;
31836;SDS011;18401;49.344;6.240;2023-03-01T06:39:05;32.83;;;13.48;;
31836;SDS011;18401;49.344;6.240;2023-03-01T06:41:31;25.75;;;13.65;;
31836;SDS011;18401;49.344;6.240;2023-03-01T06:43:58;23.88;;;12.80;;
31836;SDS011;18401;49.344;6.240;2023-03-01T06:46:24;29.25;;;13.30;;
31836;SDS011;18401;49.344;6.240;2023-03-01T06:48:50;25.33;;;13.25;;
31836;SDS011;18401;49.344;6.240;2023-03-01T06:51:16;33.60;;;13.45;;
31836;SDS011;18401;49.344;6.240;2023-03-01T06:53:41;28.83;;;12.85;;
31836;SDS011;18401;49.344;6.240;2023-03-01T06:56:07;24.27;;;12.85;;
31836;SDS011;18401;49.344;6.240;2023-03-01T06:58:33;31.05;;;14.10;;
31836;SDS011;18401;49.344;6.240;2023-03-01T07:00:58;26.17;;;13.73;;
31836;SDS011;18401;49.344;6.240;2023-03-01T07:03:24;25.63;;;12.93;;
31836;SDS011;18401;49.344;6.240;2023-03-01T07:05:50;30.35;;;13.27;;
31836;SDS011;18401;49.344;6.240;2023-03-01T07:08:19;25.48;;;13.80;;
31836;SDS011;18401;49.344;6.240;2023-03-01T07:10:44;30.67;;;14.05;;
31836;SDS011;18401;49.344;6.240;2023-03-01T07:13:10;28.90;;;14.43;;
31836;SDS011;18401;49.344;6.240;2023-03-01T07:15:36;36.58;;;15.85;;
31836;SDS011;18401;49.344;6.240;2023-03-01T07:18:02;26.13;;;13.10;;
31836;SDS011;18401;49.344;6.240;2023-03-01T07:20:27;29.38;;;13.32;;
31836;SDS011;18401;49.344;6.240;2023-03-01T07:22:54;25.25;;;13.38;;
31836;SDS011;18401;49.344;6.240;2023-03-01T07:25:21;27.42;;;13.77;;
31836;SDS011;18401;49.344;6.240;2023-03-01T07:27:50;24.70;;;13.63;;
31836;SDS011;18401;49.344;6.240;2023-03-01T07:30:16;25.25;;;13.20;;
31836;SDS011;18401;49.344;6.240;2023-03-01T07:32:42;27.48;;;13.45;;
31836;SDS011;18401;49.344;6.240;2023-03-01T07:35:08;24.83;;;13.00;;
31836;SDS011;18401;49.344;6.240;2023-03-01T07:37:34;26.73;;;14.40;;
31836;SDS011;18401;49.344;6.240;2023-03-01T07:39:59;29.15;;;14.85;;
31836;SDS011;18401;49.344;6.240;2023-03-01T07:42:25;27.88;;;12.88;;
31836;SDS011;18401;49.344;6.240;2023-03-01T07:44:50;24.13;;;12.65;;
31836;SDS011;18401;49.344;6.240;2023-03-01T07:47:16;26.48;;;14.00;;
31836;SDS011;18401;49.344;6.240;2023-03-01T07:49:42;26.58;;;13.13;;
31836;SDS011;18401;49.344;6.240;2023-03-01T07:52:09;34.33;;;14.60;;
31836;SDS011;18401;49.344;6.240;2023-03-01T07:54:36;28.35;;;13.77;;
31836;SDS011;18401;49.344;6.240;2023-03-01T07:57:01;26.77;;;13.82;;
31836;SDS011;18401;49.344;6.240;2023-03-01T07:59:27;24.80;;;14.60;;
31836;SDS011;18401;49.344;6.240;2023-03-01T08:01:55;29.45;;;14.18;;
31836;SDS011;18401;49.344;6.240;2023-03-01T08:04:21;29.58;;;15.02;;
31836;SDS011;18401;49.344;6.240;2023-03-01T08:06:49;28.77;;;14.65;;
31836;SDS011;18401;49.344;6.240;2023-03-01T08:09:15;28.83;;;13.52;;
31836;SDS011;18401;49.344;6.240;2023-03-01T08:11:41;30.55;;;13.23;;
31836;SDS011;18401;49.344;6.240;2023-03-01T08:14:07;28.42;;;15.18;;
31836;SDS011;18401;49.344;6.240;2023-03-01T08:16:33;27.08;;;13.95;;
31836;SDS011;18401;49.344;6.240;2023-03-01T08:19:03;23.10;;;13.65;;
31836;SDS011;18401;49.344;6.240;2023-03-01T08:21:32;27.05;;;12.93;;
31836;SDS011;18401;49.344;6.240;2023-03-01T08:24:00;26.60;;;14.18;;
31836;SDS011;18401;49.344;6.240;2023-03-01T08:26:26;24.83;;;12.90;;
31836;SDS011;18401;49.344;6.240;2023-03-01T08:28:52;25.15;;;12.95;;
31836;SDS011;18401;49.344;6.240;2023-03-01T08:31:19;28.58;;;13.35;;
31836;SDS011;18401;49.344;6.240;2023-03-01T08:33:47;24.48;;;13.40;;
31836;SDS011;18401;49.344;6.240;2023-03-01T08:36:16;29.15;;;13.98;;
31836;SDS011;18401;49.344;6.240;2023-03-01T08:38:43;24.77;;;13.32;;
31836;SDS011;18401;49.344;6.240;2023-03-01T08:41:09;28.23;;;14.38;;
31836;SDS011;18401;49.344;6.240;2023-03-01T08:43:34;26.92;;;14.52;;
31836;SDS011;18401;49.344;6.240;2023-03-01T08:46:00;28.02;;;15.05;;
31836;SDS011;18401;49.344;6.240;2023-03-01T08:48:27;28.35;;;14.43;;
31836;SDS011;18401;49.344;6.240;2023-03-01T08:50:53;30.63;;;13.45;;
31836;SDS011;18401;49.344;6.240;2023-03-01T08:53:19;28.13;;;14.55;;
31836;SDS011;18401;49.344;6.240;2023-03-01T08:55:45;26.38;;;13.80;;
31836;SDS011;18401;49.344;6.240;2023-03-01T08:58:10;39.58;;;15.68;;
31836;SDS011;18401;49.344;6.240;2023-03-01T09:00:36;29.85;;;14.88;;
31836;SDS011;18401;49.344;6.240;2023-03-01T09:03:02;27.92;;;14.27;;
31836;SDS011;18401;49.344;6.240;2023-03-01T09:05:27;30.67;;;15.60;;
31836;SDS011;18401;49.344;6.240;2023-03-01T09:07:56;31.33;;;14.10;;
31836;SDS011;18401;49.344;6.240;2023-03-01T09:10:22;29.83;;;14.48;;
31836;SDS011;18401;49.344;6.240;2023-03-01T09:12:48;27.58;;;14.48;;
31836;SDS011;18401;49.344;6.240;2023-03-01T09:15:13;30.27;;;12.93;;
31836;SDS011;18401;49.344;6.240;2023-03-01T09:17:40;29.63;;;13.13;;
31836;SDS011;18401;49.344;6.240;2023-03-01T09:20:06;38.80;;;13.27;;
31836;SDS011;18401;49.344;6.240;2023-03-01T09:22:35;26.67;;;13.25;;
31836;SDS011;18401;49.344;6.240;2023-03-01T09:25:01;29.35;;;15.73;;
31836;SDS011;18401;49.344;6.240;2023-03-01T09:27:26;26.33;;;13.73;;
31836;SDS011;18401;49.344;6.240;2023-03-01T09:29:52;27.90;;;13.35;;
31836;SDS011;18401;49.344;6.240;2023-03-01T09:32:18;28.40;;;14.25;;
31836;SDS011;18401;49.344;6.240;2023-03-01T09:34:43;25.52;;;13.68;;
31836;SDS011;18401;49.344;6.240;2023-03-01T09:37:34;30.48;;;15.13;;
31836;SDS011;18401;49.344;6.240;2023-03-01T09:40:02;27.08;;;14.25;;
31836;SDS011;18401;49.344;6.240;2023-03-01T09:42:29;36.15;;;13.75;;
31836;SDS011;18401;49.344;6.240;2023-03-01T09:45:02;30.08;;;14.75;;
31836;SDS011;18401;49.344;6.240;2023-03-01T09:47:31;29.33;;;14.93;;
31836;SDS011;18401;49.344;6.240;2023-03-01T09:50:15;30.63;;;13.80;;
31836;SDS011;18401;49.344;6.240;2023-03-01T09:52:46;31.80;;;14.80;;
31836;SDS011;18401;49.344;6.240;2023-03-01T09:55:26;32.92;;;14.35;;
31836;SDS011;18401;49.344;6.240;2023-03-01T09:58:00;30.55;;;15.30;;
31836;SDS011;18401;49.344;6.240;2023-03-01T10:03:12;26.02;;;13.10;;
31836;SDS011;18401;49.344;6.240;2023-03-01T10:11:22;29.65;;;15.07;;
31836;SDS011;18401;49.344;6.240;2023-03-01T10:13:58;34.40;;;17.23;;
31836;SDS011;18401;49.344;6.240;2023-03-01T10:16:56;33.08;;;17.00;;
31836;SDS011;18401;49.344;6.240;2023-03-01T10:19:48;23.25;;;13.07;;
31836;SDS011;18401;49.344;6.240;2023-03-01T10:22:18;24.20;;;14.32;;
31836;SDS011;18401;49.344;6.240;2023-03-01T10:24:53;25.35;;;14.10;;
31836;SDS011;18401;49.344;6.240;2023-03-01T10:27:22;26.60;;;13.73;;
31836;SDS011;18401;49.344;6.240;2023-03-01T10:29:54;28.27;;;14.77;;
31836;SDS011;18401;49.344;6.240;2023-03-01T10:32:31;25.55;;;14.52;;
31836;SDS011;18401;49.344;6.240;2023-03-01T10:34:57;28.95;;;13.93;;
31836;SDS011;18401;49.344;6.240;2023-03-01T10:37:23;26.65;;;13.23;;
31836;SDS011;18401;49.344;6.240;2023-03-01T10:40:03;26.92;;;13.18;;
31836;SDS011;18401;49.344;6.240;2023-03-01T10:42:34;28.80;;;13.88;;
31836;SDS011;18401;49.344;6.240;2023-03-01T10:45:19;23.92;;;13.20;;
31836;SDS011;18401;49.344;6.240;2023-03-01T10:50:33;27.55;;;13.88;;
31836;SDS011;18401;49.344;6.240;2023-03-01T10:53:00;27.95;;;14.85;;
31836;SDS011;18401;49.344;6.240;2023-03-01T10:55:30;26.65;;;15.23;;
31836;SDS011;18401;49.344;6.240;2023-03-01T10:58:08;26.42;;;13.57;;
31836;SDS011;18401;49.344;6.240;2023-03-01T11:00:45;23.25;;;13.27;;
31836;SDS011;18401;49.344;6.240;2023-03-01T11:03:19;24.27;;;14.18;;
31836;SDS011;18401;49.344;6.240;2023-03-01T11:08:32;30.95;;;15.80;;
31836;SDS011;18401;49.344;6.240;2023-03-01T11:14:00;24.80;;;14.13;;
31836;SDS011;18401;49.344;6.240;2023-03-01T11:16:38;27.40;;;13.43;;
31836;SDS011;18401;49.344;6.240;2023-03-01T11:21:35;28.48;;;14.27;;
31836;SDS011;18401;49.344;6.240;2023-03-01T11:24:09;25.52;;;13.27;;
31836;SDS011;18401;49.344;6.240;2023-03-01T11:26:42;26.33;;;13.10;;
31836;SDS011;18401;49.344;6.240;2023-03-01T11:29:18;29.92;;;14.50;;
31836;SDS011;18401;49.344;6.240;2023-03-01T11:31:53;26.42;;;13.32;;
31836;SDS011;18401;49.344;6.240;2023-03-01T11:37:26;24.92;;;13.18;;
31836;SDS011;18401;49.344;6.240;2023-03-01T11:45:08;21.45;;;13.07;;
31836;SDS011;18401;49.344;6.240;2023-03-01T11:47:50;20.65;;;12.60;;
31836;SDS011;18401;49.344;6.240;2023-03-01T11:50:28;23.73;;;13.65;;
31836;SDS011;18401;49.344;6.240;2023-03-01T11:53:50;24.95;;;13.20;;
31836;SDS011;18401;49.344;6.240;2023-03-01T11:58:43;24.60;;;13.95;;
31836;SDS011;18401;49.344;6.240;2023-03-01T12:01:35;25.63;;;13.38;;
31836;SDS011;18401;49.344;6.240;2023-03-01T12:07:00;24.27;;;12.75;;
31836;SDS011;18401;49.344;6.240;2023-03-01T12:25:28;26.75;;;12.93;;
31836;SDS011;18401;49.344;6.240;2023-03-01T12:33:37;24.35;;;12.13;;
31836;SDS011;18401;49.344;6.240;2023-03-01T12:36:21;22.33;;;13.32;;
31836;SDS011;18401;49.344;6.240;2023-03-01T12:50:48;25.95;;;12.95;;
31836;SDS011;18401;49.344;6.240;2023-03-01T12:53:22;21.92;;;12.60;;
31836;SDS011;18401;49.344;6.240;2023-03-01T12:55:48;23.40;;;12.40;;
31836;SDS011;18401;49.344;6.240;2023-03-01T13:09:34;28.75;;;13.43;;
31836;SDS011;18401;49.344;6.240;2023-03-01T13:18:01;26.80;;;13.68;;
31836;SDS011;18401;49.344;6.240;2023-03-01T13:20:29;25.85;;;14.00;;
31836;SDS011;18401;49.344;6.240;2023-03-01T13:31:03;25.65;;;12.73;;
31836;SDS011;18401;49.344;6.240;2023-03-01T13:35:56;22.23;;;13.75;;
31836;SDS011;18401;49.344;6.240;2023-03-01T13:41:09;24.55;;;13.43;;
31836;SDS011;18401;49.344;6.240;2023-03-01T13:43:35;26.75;;;12.10;;
31836;SDS011;18401;49.344;6.240;2023-03-01T13:46:36;22.95;;;12.95;;
31836;SDS011;18401;49.344;6.240;2023-03-01T13:48:55;21.98;;;12.68;;
31836;SDS011;18401;49.344;6.240;2023-03-01T13:51:26;23.35;;;12.50;;
31836;SDS011;18401;49.344;6.240;2023-03-01T13:53:52;24.42;;;13.02;;
31836;SDS011;18401;49.344;6.240;2023-03-01T13:56:27;23.90;;;13.05;;
31836;SDS011;18401;49.344;6.240;2023-03-01T14:01:38;25.52;;;11.52;;
31836;SDS011;18401;49.344;6.240;2023-03-01T14:04:27;25.40;;;13.68;;
31836;SDS011;18401;49.344;6.240;2023-03-01T14:07:08;25.05;;;12.65;;
31836;SDS011;18401;49.344;6.240;2023-03-01T14:09:45;24.05;;;12.07;;
31836;SDS011;18401;49.344;6.240;2023-03-01T14:14:53;24.42;;;13.38;;
31836;SDS011;18401;49.344;6.240;2023-03-01T14:19:59;20.95;;;12.10;;
31836;SDS011;18401;49.344;6.240;2023-03-01T14:22:33;21.98;;;12.77;;
31836;SDS011;18401;49.344;6.240;2023-03-01T14:25:02;22.08;;;12.30;;
31836;SDS011;18401;49.344;6.240;2023-03-01T14:27:56;22.67;;;12.82;;
31836;SDS011;18401;49.344;6.240;2023-03-01T14:30:35;24.77;;;12.45;;
31836;SDS011;18401;49.344;6.240;2023-03-01T14:35:56;28.83;;;13.45;;
31836;SDS011;18401;49.344;6.240;2023-03-01T14:41:05;21.77;;;11.45;;
31836;SDS011;18401;49.344;6.240;2023-03-01T14:43:34;23.20;;;12.95;;
31836;SDS011;18401;49.344;6.240;2023-03-01T14:46:01;21.88;;;12.52;;
31836;SDS011;18401;49.344;6.240;2023-03-01T14:48:27;24.27;;;12.75;;
31836;SDS011;18401;49.344;6.240;2023-03-01T14:50:54;23.75;;;12.10;;
31836;SDS011;18401;49.344;6.240;2023-03-01T14:53:25;22.92;;;12.65;;
31836;SDS011;18401;49.344;6.240;2023-03-01T14:55:54;24.60;;;12.85;;
31836;SDS011;18401;49.344;6.240;2023-03-01T14:58:24;22.00;;;12.10;;
31836;SDS011;18401;49.344;6.240;2023-03-01T15:00:52;25.63;;;12.52;;
31836;SDS011;18401;49.344;6.240;2023-03-01T15:03:35;23.00;;;11.95;;
31836;SDS011;18401;49.344;6.240;2023-03-01T15:06:03;22.92;;;11.93;;
31836;SDS011;18401;49.344;6.240;2023-03-01T15:08:30;21.17;;;12.55;;
31836;SDS011;18401;49.344;6.240;2023-03-01T15:13:47;24.65;;;11.70;;
31836;SDS011;18401;49.344;6.240;2023-03-01T15:16:17;20.90;;;11.38;;
31836;SDS011;18401;49.344;6.240;2023-03-01T15:18:51;24.63;;;12.48;;
31836;SDS011;18401;49.344;6.240;2023-03-01T15:21:29;26.27;;;11.93;;
31836;SDS011;18401;49.344;6.240;2023-03-01T15:24:23;21.40;;;11.32;;
31836;SDS011;18401;49.344;6.240;2023-03-01T15:26:56;22.23;;;11.95;;
31836;SDS011;18401;49.344;6.240;2023-03-01T15:29:28;24.58;;;11.63;;
31836;SDS011;18401;49.344;6.240;2023-03-01T15:32:03;21.90;;;11.68;;
31836;SDS011;18401;49.344;6.240;2023-03-01T15:34:49;19.05;;;10.82;;
31836;SDS011;18401;49.344;6.240;2023-03-01T15:43:36;21.48;;;11.32;;
31836;SDS011;18401;49.344;6.240;2023-03-01T15:46:15;26.05;;;12.50;;
31836;SDS011;18401;49.344;6.240;2023-03-01T15:48:46;19.77;;;11.45;;
31836;SDS011;18401;49.344;6.240;2023-03-01T15:51:14;26.42;;;12.95;;
31836;SDS011;18401;49.344;6.240;2023-03-01T15:53:41;26.70;;;12.25;;
31836;SDS011;18401;49.344;6.240;2023-03-01T15:56:08;26.42;;;12.95;;
31836;SDS011;18401;49.344;6.240;2023-03-01T15:58:34;22.75;;;11.93;;
31836;SDS011;18401;49.344;6.240;2023-03-01T16:01:00;23.02;;;12.07;;
31836;SDS011;18401;49.344;6.240;2023-03-01T16:03:25;20.98;;;12.32;;
31836;SDS011;18401;49.344;6.240;2023-03-01T16:05:51;21.45;;;11.63;;
31836;SDS011;18401;49.344;6.240;2023-03-01T16:08:17;23.83;;;13.55;;
31836;SDS011;18401;49.344;6.240;2023-03-01T16:10:43;21.13;;;11.75;;
31836;SDS011;18401;49.344;6.240;2023-03-01T16:13:13;22.48;;;12.23;;
31836;SDS011;18401;49.344;6.240;2023-03-01T16:15:39;26.65;;;12.38;;
31836;SDS011;18401;49.344;6.240;2023-03-01T16:18:06;18.30;;;11.43;;
31836;SDS011;18401;49.344;6.240;2023-03-01T16:20:32;22.48;;;12.45;;
31836;SDS011;18401;49.344;6.240;2023-03-01T16:23:00;23.10;;;11.35;;
31836;SDS011;18401;49.344;6.240;2023-03-01T16:25:27;23.23;;;12.27;;
31836;SDS011;18401;49.344;6.240;2023-03-01T16:27:53;24.45;;;11.40;;
31836;SDS011;18401;49.344;6.240;2023-03-01T16:30:20;24.50;;;11.75;;
31836;SDS011;18401;49.344;6.240;2023-03-01T16:32:48;19.45;;;11.65;;
31836;SDS011;18401;49.344;6.240;2023-03-01T16:35:16;31.73;;;12.40;;
31836;SDS011;18401;49.344;6.240;2023-03-01T16:37:43;28.98;;;11.93;;
31836;SDS011;18401;49.344;6.240;2023-03-01T16:40:19;22.25;;;11.82;;
31836;SDS011;18401;49.344;6.240;2023-03-01T16:42:48;23.17;;;10.85;;
31836;SDS011;18401;49.344;6.240;2023-03-01T16:45:15;19.95;;;11.73;;
31836;SDS011;18401;49.344;6.240;2023-03-01T16:47:41;25.60;;;12.18;;
31836;SDS011;18401;49.344;6.240;2023-03-01T16:50:07;25.92;;;12.02;;
31836;SDS011;18401;49.344;6.240;2023-03-01T16:52:33;23.35;;;11.25;;
31836;SDS011;18401;49.344;6.240;2023-03-01T16:54:59;26.25;;;13.55;;
31836;SDS011;18401;49.344;6.240;2023-03-01T16:57:25;21.05;;;11.30;;
31836;SDS011;18401;49.344;6.240;2023-03-01T16:59:51;27.23;;;13.10;;
31836;SDS011;18401;49.344;6.240;2023-03-01T17:02:18;30.50;;;13.68;;
31836;SDS011;18401;49.344;6.240;2023-03-01T17:04:45;24.55;;;11.23;;
31836;SDS011;18401;49.344;6.240;2023-03-01T17:07:16;20.60;;;10.90;;
31836;SDS011;18401;49.344;6.240;2023-03-01T17:09:41;28.02;;;11.85;;
31836;SDS011;18401;49.344;6.240;2023-03-01T17:12:07;20.92;;;12.45;;
31836;SDS011;18401;49.344;6.240;2023-03-01T17:14:33;23.85;;;12.18;;
31836;SDS011;18401;49.344;6.240;2023-03-01T17:16:59;21.60;;;11.63;;
31836;SDS011;18401;49.344;6.240;2023-03-01T17:19:26;20.42;;;11.02;;
31836;SDS011;18401;49.344;6.240;2023-03-01T17:21:52;27.92;;;12.05;;
31836;SDS011;18401;49.344;6.240;2023-03-01T17:24:18;26.17;;;12.52;;
31836;SDS011;18401;49.344;6.240;2023-03-01T17:26:44;29.80;;;12.77;;
31836;SDS011;18401;49.344;6.240;2023-03-01T17:29:09;28.27;;;12.55;;
31836;SDS011;18401;49.344;6.240;2023-03-01T17:31:37;27.33;;;12.90;;
31836;SDS011;18401;49.344;6.240;2023-03-01T17:34:02;30.63;;;13.27;;
31836;SDS011;18401;49.344;6.240;2023-03-01T17:36:28;43.47;;;16.77;;
31836;SDS011;18401;49.344;6.240;2023-03-01T17:38:54;48.30;;;20.75;;
31836;SDS011;18401;49.344;6.240;2023-03-01T17:41:19;36.55;;;16.13;;
31836;SDS011;18401;49.344;6.240;2023-03-01T17:43:47;35.72;;;15.60;;
31836;SDS011;18401;49.344;6.240;2023-03-01T17:46:13;29.60;;;14.57;;
31836;SDS011;18401;49.344;6.240;2023-03-01T17:48:38;42.08;;;18.48;;